Time;durP1;ratioP1;P1;durP2;ratioP2;P2;SDS_P1;SDS_P2;PMS_P1;PMS_P2;Temp;Humidity;BMP_temperature;BMP_pressure;BME280_temperature;BME280_humidity;BME280_pressure;Samples;Min_cycle;Max_cycle;Signal;HPM_P1;HPM_P2
2021/12/16 00:02:09;;;;;;;60.78;33.70;;;10.80;99.90;;;;;;5076391;28;20073;-84
2021/12/16 00:08:03;;;;;;;68.45;33.03;;;10.80;99.90;;;;;;5076855;28;20092;-84
2021/12/16 00:19:51;;;;;;;68.82;35.13;;;10.70;99.90;;;;;;5059536;28;20171;-84
2021/12/16 00:37:46;;;;;;;62.15;32.97;;;10.60;99.90;;;;;;5051657;28;20024;-83
2021/12/16 00:40:13;;;;;;;62.15;33.80;;;10.60;99.90;;;;;;5068847;28;20041;-83
2021/12/16 00:42:53;;;;;;;65.20;33.97;;;10.60;99.90;;;;;;5056676;28;20104;-83
2021/12/16 00:54:09;;;;;;;60.80;33.55;;;10.60;99.90;;;;;;5093672;28;20032;-83
2021/12/16 00:57:02;;;;;;;68.25;35.83;;;10.60;99.90;;;;;;5091210;28;20078;-83
2021/12/16 00:59:33;;;;;;;71.38;35.35;;;10.60;99.90;;;;;;5112451;28;20425;-84
2021/12/16 01:02:32;;;;;;;69.70;33.42;;;10.60;99.90;;;;;;5066517;28;20107;-83
2021/12/16 01:51:35;;;;;;;73.32;37.92;;;10.60;99.90;;;;;;5113261;28;20042;-83
2021/12/16 01:57:40;;;;;;;75.22;37.60;;;10.60;99.90;;;;;;5093815;28;20066;-84
2021/12/16 02:04:30;;;;;;;66.88;34.95;;;10.50;99.90;;;;;;5094819;28;20061;-83
2021/12/16 02:10:23;;;;;;;74.85;35.10;;;10.60;99.90;;;;;;5014966;28;20072;-84
2021/12/16 02:32:48;;;;;;;69.28;33.53;;;10.50;99.90;;;;;;5096294;28;20089;-84
2021/12/16 02:37:47;;;;;;;64.78;34.92;;;10.40;99.90;;;;;;5096118;28;20098;-83
2021/12/16 02:40:15;;;;;;;65.10;34.28;;;10.50;99.90;;;;;;5078084;28;20024;-83
2021/12/16 02:42:55;;;;;;;62.58;34.38;;;10.40;99.90;;;;;;5079790;28;20062;-83
2021/12/16 02:48:32;;;;;;;59.30;31.92;;;10.40;99.90;;;;;;5096396;28;20089;-84
2021/12/16 02:51:09;;;;;;;70.90;36.05;;;10.50;99.90;;;;;;5080705;28;20024;-83
2021/12/16 02:53:37;;;;;;;70.28;34.58;;;10.40;99.90;;;;;;5096489;28;20028;-83
2021/12/16 02:56:04;;;;;;;67.22;34.78;;;10.40;99.90;;;;;;5067586;28;20012;-83
2021/12/16 02:58:30;;;;;;;60.42;33.65;;;10.40;99.90;;;;;;5075318;28;20025;-83
2021/12/16 03:04:05;;;;;;;58.40;32.00;;;10.40;99.90;;;;;;5075259;28;20042;-83
2021/12/16 03:06:32;;;;;;;71.85;34.47;;;10.40;99.90;;;;;;5057607;28;20545;-84
2021/12/16 03:09:00;;;;;;;63.88;33.70;;;10.40;99.90;;;;;;5040515;28;20021;-83
2021/12/16 03:11:38;;;;;;;70.75;34.80;;;10.40;99.90;;;;;;5057202;28;20033;-84
2021/12/16 03:19:23;;;;;;;62.22;33.13;;;10.40;99.90;;;;;;5082969;28;20063;-84
2021/12/16 03:21:54;;;;;;;62.13;33.10;;;10.40;99.90;;;;;;5049474;28;20048;-83
2021/12/16 03:32:40;;;;;;;60.38;31.58;;;10.30;99.90;;;;;;5021512;28;20116;-84
2021/12/16 03:36:04;;;;;;;63.53;33.45;;;10.30;99.90;;;;;;4980206;28;20074;-84
2021/12/16 03:41:55;;;;;;;55.60;30.95;;;10.30;99.90;;;;;;4974571;28;19929;-83
2021/12/16 03:47:47;;;;;;;61.80;32.55;;;10.20;99.90;;;;;;4995226;28;20489;-84
2021/12/16 03:50:19;;;;;;;57.97;32.40;;;10.20;99.90;;;;;;4978760;28;20094;-83
2021/12/16 03:52:47;;;;;;;58.67;33.30;;;10.20;99.90;;;;;;4995323;28;20262;-83
2021/12/16 03:55:14;;;;;;;50.65;30.27;;;10.20;99.90;;;;;;4977167;28;20042;-83
2021/12/16 03:57:40;;;;;;;56.22;32.50;;;10.20;99.90;;;;;;4976536;28;20049;-83
2021/12/16 04:00:14;;;;;;;61.15;32.15;;;10.20;99.90;;;;;;5003426;28;20040;-83
2021/12/16 04:02:40;;;;;;;64.43;33.00;;;10.20;99.90;;;;;;4976642;28;20026;-84
2021/12/16 04:05:09;;;;;;;54.25;30.80;;;10.20;99.90;;;;;;4977229;28;20043;-83
2021/12/16 04:07:38;;;;;;;59.45;33.65;;;10.20;99.90;;;;;;4996197;28;20026;-83
2021/12/16 04:10:08;;;;;;;59.25;33.28;;;10.20;99.90;;;;;;5023966;28;20473;-83
2021/12/16 04:12:34;;;;;;;54.90;31.92;;;10.20;99.90;;;;;;5054395;28;20017;-83
2021/12/16 04:15:03;;;;;;;59.33;33.10;;;10.20;99.90;;;;;;5053281;28;20021;-83
2021/12/16 04:17:30;;;;;;;62.40;32.42;;;10.20;99.90;;;;;;5054490;28;20021;-83
2021/12/16 04:19:57;;;;;;;58.47;31.08;;;10.20;99.90;;;;;;5035439;28;20021;-83
2021/12/16 04:22:36;;;;;;;58.15;30.60;;;10.20;99.90;;;;;;5053568;28;20025;-83
2021/12/16 04:25:07;;;;;;;53.55;31.27;;;10.20;99.90;;;;;;5036190;28;20488;-83
2021/12/16 04:27:34;;;;;;;56.95;30.90;;;10.20;99.90;;;;;;5036052;28;20104;-83
2021/12/16 04:30:00;;;;;;;61.90;31.58;;;10.20;99.90;;;;;;5035985;28;20045;-83
2021/12/16 04:32:26;;;;;;;62.20;30.70;;;10.20;99.90;;;;;;5036042;28;20087;-83
2021/12/16 04:34:52;;;;;;;61.97;30.30;;;10.20;99.90;;;;;;5069177;28;20033;-84
2021/12/16 04:37:18;;;;;;;73.28;32.25;;;10.20;99.90;;;;;;5036265;28;20052;-83
2021/12/16 04:39:46;;;;;;;67.30;33.20;;;10.20;99.90;;;;;;5035854;28;20458;-83
2021/12/16 04:42:14;;;;;;;68.05;33.15;;;10.20;99.90;;;;;;5035687;28;20063;-83
2021/12/16 04:44:41;;;;;;;66.78;31.35;;;10.20;99.90;;;;;;5053643;28;20037;-83
2021/12/16 04:47:07;;;;;;;65.10;32.13;;;10.20;99.90;;;;;;5049747;28;20430;-84
2021/12/16 04:50:11;;;;;;;62.03;32.03;;;10.20;99.90;;;;;;5055854;28;20119;-84
2021/12/16 04:52:40;;;;;;;64.68;30.95;;;10.20;99.90;;;;;;5055728;28;20368;-84
2021/12/16 04:55:08;;;;;;;71.55;33.47;;;10.20;99.90;;;;;;5039004;28;20038;-84
2021/12/16 04:57:34;;;;;;;72.30;31.63;;;10.20;99.90;;;;;;5072447;28;20060;-84
2021/12/16 04:59:59;;;;;;;66.28;30.98;;;10.20;99.90;;;;;;5073643;28;20510;-84
2021/12/16 05:02:26;;;;;;;73.35;32.55;;;10.20;99.90;;;;;;5055670;28;20119;-84
2021/12/16 05:04:52;;;;;;;71.53;30.90;;;10.20;99.90;;;;;;5055477;28;20041;-83
2021/12/16 05:07:29;;;;;;;70.80;33.15;;;10.10;99.90;;;;;;5038827;28;20094;-83
2021/12/16 05:12:47;;;;;;;88.57;35.00;;;10.20;99.90;;;;;;5058519;28;20089;-83
2021/12/16 05:15:20;;;;;;;82.53;33.88;;;10.10;99.90;;;;;;5055524;28;20078;-83
2021/12/16 05:17:50;;;;;;;78.72;32.53;;;10.10;99.90;;;;;;5055720;28;20021;-82
2021/12/16 05:20:21;;;;;;;77.90;32.40;;;10.10;99.90;;;;;;5039119;28;20127;-83
2021/12/16 05:25:45;;;;;;;77.43;33.40;;;10.10;99.90;;;;;;5073344;28;20085;-83
2021/12/16 05:28:11;;;;;;;72.07;31.35;;;10.10;99.90;;;;;;5056360;28;20036;-83
2021/12/16 05:30:37;;;;;;;70.78;31.40;;;10.10;99.90;;;;;;5038795;28;20495;-83
2021/12/16 05:33:04;;;;;;;75.35;31.50;;;10.10;99.90;;;;;;5058351;28;20059;-83
2021/12/16 05:35:31;;;;;;;80.63;33.03;;;10.10;99.90;;;;;;5078161;28;20024;-84
2021/12/16 05:37:58;;;;;;;73.95;32.15;;;10.10;99.90;;;;;;5059357;28;20024;-83
2021/12/16 05:40:27;;;;;;;81.38;32.20;;;10.10;99.90;;;;;;5074970;28;20043;-83
2021/12/16 05:42:55;;;;;;;69.45;29.42;;;10.10;99.90;;;;;;5079297;28;20472;-83
2021/12/16 05:45:23;;;;;;;66.70;30.08;;;10.10;99.90;;;;;;5079237;28;20042;-83
2021/12/16 05:47:50;;;;;;;65.78;28.90;;;10.10;99.90;;;;;;5059568;28;20075;-83
2021/12/16 05:50:19;;;;;;;89.30;28.17;;;10.10;99.90;;;;;;5026274;28;20028;-83
2021/12/16 05:52:45;;;;;;;79.95;28.52;;;10.10;99.90;;;;;;5062193;28;20031;-83
2021/12/16 05:55:49;;;;;;;78.35;29.27;;;10.10;99.90;;;;;;5064242;28;20035;-84
2021/12/16 05:58:18;;;;;;;61.78;27.77;;;10.10;99.90;;;;;;5061223;28;20020;-84
2021/12/16 06:00:50;;;;;;;66.45;25.52;;;10.00;99.90;;;;;;5076262;28;20020;-86
2021/12/16 06:03:17;;;;;;;73.45;25.88;;;10.00;99.90;;;;;;5058200;28;20087;-83
2021/12/16 06:05:43;;;;;;;66.07;26.80;;;10.00;99.90;;;;;;5075811;28;20056;-84
2021/12/16 06:08:10;;;;;;;60.25;27.27;;;10.00;99.90;;;;;;5076445;28;20111;-84
2021/12/16 06:13:24;;;;;;;76.03;24.60;;;10.00;99.90;;;;;;5077000;28;20043;-84
2021/12/16 06:29:17;;;;;;;55.72;21.92;;;9.90;99.90;;;;;;5076161;28;20039;-84
2021/12/16 06:31:43;;;;;;;59.70;22.38;;;9.80;99.90;;;;;;5042191;28;20032;-84
2021/12/16 06:34:11;;;;;;;60.28;23.38;;;9.80;99.90;;;;;;5039406;28;20456;-84
2021/12/16 06:36:37;;;;;;;80.78;23.00;;;9.80;99.90;;;;;;5038034;28;20033;-85
2021/12/16 06:39:04;;;;;;;71.55;23.40;;;9.70;99.90;;;;;;5054725;28;20017;-84
2021/12/16 06:41:35;;;;;;;50.08;22.67;;;9.70;99.90;;;;;;5054833;28;20018;-84
2021/12/16 06:44:06;;;;;;;76.30;22.77;;;9.70;99.90;;;;;;5037369;28;20592;-84
2021/12/16 06:50:01;;;;;;;52.05;23.52;;;9.70;99.90;;;;;;5116437;28;20022;-83
2021/12/16 06:52:34;;;;;;;69.95;24.00;;;9.70;99.90;;;;;;5081402;28;20571;-84
2021/12/16 07:00:16;;;;;;;74.25;22.55;;;9.70;99.90;;;;;;5115435;28;20414;-84
2021/12/16 07:02:56;;;;;;;79.90;23.88;;;9.60;99.90;;;;;;5084778;28;20047;-85
2021/12/16 07:05:49;;;;;;;62.33;22.35;;;9.60;99.90;;;;;;5096816;28;20031;-84
2021/12/16 07:08:33;;;;;;;56.25;22.20;;;9.60;99.90;;;;;;5098881;28;20024;-85
2021/12/16 07:10:59;;;;;;;73.35;20.33;;;9.60;99.90;;;;;;5062018;28;20472;-83
2021/12/16 07:13:37;;;;;;;56.25;22.15;;;9.60;99.90;;;;;;5061246;28;20135;-83
2021/12/16 07:16:03;;;;;;;58.25;21.60;;;9.60;99.90;;;;;;5081292;28;20034;-85
2021/12/16 07:18:29;;;;;;;59.22;21.38;;;9.60;99.90;;;;;;5079745;28;20028;-85
2021/12/16 07:21:18;;;;;;;74.63;21.50;;;9.50;99.90;;;;;;5062179;28;20369;-85
2021/12/16 07:27:08;;;;;;;43.35;19.10;;;9.50;99.90;;;;;;5096524;28;20153;-84
2021/12/16 07:33:17;;;;;;;42.55;20.95;;;9.60;99.90;;;;;;5119201;28;20035;-84
2021/12/16 07:35:43;;;;;;;37.92;21.25;;;9.50;99.90;;;;;;5084170;28;20031;-84
2021/12/16 07:38:10;;;;;;;40.50;20.25;;;9.50;99.90;;;;;;5083164;28;20019;-85
2021/12/16 07:40:38;;;;;;;60.33;23.08;;;9.60;99.90;;;;;;5082540;28;20054;-84
2021/12/16 07:45:37;;;;;;;73.20;20.98;;;9.50;99.90;;;;;;5110969;28;20050;-83
2021/12/16 07:48:03;;;;;;;38.60;20.38;;;9.50;99.90;;;;;;5117035;28;20054;-82
2021/12/16 07:50:29;;;;;;;55.90;22.58;;;9.60;99.90;;;;;;5097257;28;20077;-83
2021/12/16 07:52:55;;;;;;;57.95;20.60;;;9.50;99.90;;;;;;5114784;28;20023;-83
2021/12/16 07:55:21;;;;;;;70.85;20.55;;;9.50;99.90;;;;;;5063761;28;20049;-83
2021/12/16 07:57:47;;;;;;;68.32;20.45;;;9.50;99.90;;;;;;5080188;28;20019;-87
2021/12/16 08:00:26;;;;;;;51.10;21.52;;;9.50;99.90;;;;;;5097246;28;20212;-82
2021/12/16 08:02:52;;;;;;;46.47;22.98;;;9.50;99.90;;;;;;5097111;28;20033;-82
2021/12/16 08:05:28;;;;;;;40.55;20.15;;;9.50;99.90;;;;;;5097219;28;20028;-83
2021/12/16 08:11:19;;;;;;;76.13;22.15;;;9.50;99.90;;;;;;5114889;28;20026;-82
2021/12/16 08:13:45;;;;;;;50.28;21.73;;;9.50;99.90;;;;;;5096866;28;20024;-82
2021/12/16 08:16:11;;;;;;;48.00;20.77;;;9.50;99.90;;;;;;5062978;28;20024;-82
2021/12/16 08:18:37;;;;;;;50.47;20.80;;;9.50;99.90;;;;;;5096914;28;20038;-82
2021/12/16 08:21:04;;;;;;;56.40;21.02;;;9.50;99.90;;;;;;5079675;28;20077;-82
2021/12/16 08:23:30;;;;;;;62.10;20.95;;;9.50;99.90;;;;;;5096313;28;20046;-82
2021/12/16 08:25:55;;;;;;;43.53;19.67;;;9.50;99.90;;;;;;5095599;28;20023;-83
2021/12/16 08:28:22;;;;;;;60.92;20.77;;;9.50;99.90;;;;;;5079051;28;20042;-86
2021/12/16 08:30:50;;;;;;;60.80;23.33;;;9.50;99.90;;;;;;5094245;28;20371;-83
2021/12/16 08:33:17;;;;;;;55.22;21.45;;;9.40;99.90;;;;;;5094978;28;20036;-83
2021/12/16 08:35:47;;;;;;;70.47;21.00;;;9.40;99.90;;;;;;5096149;28;20046;-82
2021/12/16 08:38:16;;;;;;;57.80;22.77;;;9.40;99.90;;;;;;5113740;28;20104;-83
2021/12/16 08:40:43;;;;;;;51.55;21.70;;;9.40;99.90;;;;;;5107720;28;20032;-83
2021/12/16 08:43:10;;;;;;;53.38;23.90;;;9.40;99.90;;;;;;5092528;28;20180;-83
2021/12/16 08:45:36;;;;;;;60.67;22.15;;;9.40;99.90;;;;;;5113936;28;20098;-83
2021/12/16 08:48:04;;;;;;;45.80;22.15;;;9.40;99.90;;;;;;5079173;28;20052;-82
2021/12/16 08:50:34;;;;;;;41.72;21.90;;;9.40;99.90;;;;;;5089651;28;20024;-82
2021/12/16 08:53:02;;;;;;;81.38;24.85;;;9.40;99.90;;;;;;5104153;28;20108;-82
2021/12/16 08:55:30;;;;;;;59.05;23.15;;;9.40;99.90;;;;;;5092351;28;20484;-83
2021/12/16 08:57:56;;;;;;;48.25;19.90;;;9.40;99.90;;;;;;5095625;28;20023;-82
2021/12/16 09:00:26;;;;;;;51.03;21.95;;;9.40;99.90;;;;;;5095299;28;20032;-82
2021/12/16 09:02:52;;;;;;;54.17;21.95;;;9.40;99.90;;;;;;5095505;28;20023;-82
2021/12/16 09:05:20;;;;;;;39.17;21.15;;;9.40;99.90;;;;;;5079661;28;20028;-82
2021/12/16 09:07:48;;;;;;;63.50;21.13;;;9.40;99.90;;;;;;5078783;28;20051;-83
2021/12/16 09:10:20;;;;;;;74.63;22.88;;;9.50;99.90;;;;;;5068966;28;20035;-83
2021/12/16 09:15:24;;;;;;;55.05;23.20;;;9.50;99.90;;;;;;5099674;28;20035;-82
2021/12/16 09:17:51;;;;;;;59.78;23.55;;;9.50;99.90;;;;;;5113067;28;20028;-82
2021/12/16 09:20:17;;;;;;;59.67;22.75;;;9.50;99.90;;;;;;5112324;28;20023;-83
2021/12/16 09:22:43;;;;;;;73.28;21.98;;;9.50;99.90;;;;;;5096274;28;20024;-83
2021/12/16 09:25:10;;;;;;;53.78;20.80;;;9.50;99.90;;;;;;5085974;28;20067;-82
2021/12/16 09:27:35;;;;;;;51.55;19.77;;;9.50;99.90;;;;;;5083535;28;20027;-83
2021/12/16 09:30:03;;;;;;;52.53;21.08;;;9.50;99.90;;;;;;5106318;28;20093;-82
2021/12/16 09:32:31;;;;;;;52.83;21.55;;;9.50;99.90;;;;;;5086465;28;20028;-82
2021/12/16 09:34:58;;;;;;;61.05;20.98;;;9.50;99.90;;;;;;5109686;28;20038;-83
2021/12/16 09:37:24;;;;;;;66.47;23.33;;;9.50;99.90;;;;;;5075573;28;20016;-85
2021/12/16 09:43:23;;;;;;;65.75;19.45;;;9.50;99.90;;;;;;5093372;28;20400;-85
2021/12/16 09:46:12;;;;;;;70.30;21.90;;;9.50;99.90;;;;;;5092280;28;20093;-85
2021/12/16 09:48:38;;;;;;;52.35;18.80;;;9.50;99.90;;;;;;5075588;28;20040;-85
2021/12/16 09:51:07;;;;;;;52.03;19.25;;;9.50;99.90;;;;;;5059025;28;20036;-85
2021/12/16 09:53:35;;;;;;;54.83;19.35;;;9.40;99.90;;;;;;5075079;28;20024;-85
2021/12/16 10:00:14;;;;;;;45.90;21.50;;;9.50;99.90;;;;;;5093576;28;20065;-86
2021/12/16 10:06:02;;;;;;;67.18;20.85;;;9.50;99.90;;;;;;5101250;28;20058;-86
2021/12/16 10:11:54;;;;;;;45.25;20.65;;;9.50;99.90;;;;;;5093414;28;20099;-85
2021/12/16 10:17:42;;;;;;;72.15;21.70;;;9.50;99.90;;;;;;5092916;28;20499;-83
2021/12/16 10:20:13;;;;;;;64.70;21.77;;;9.60;99.90;;;;;;5077652;28;20447;-83
2021/12/16 10:22:42;;;;;;;44.67;19.02;;;9.60;99.90;;;;;;5078554;28;20024;-83
2021/12/16 10:25:43;;;;;;;39.55;19.75;;;9.60;99.90;;;;;;5061952;28;20039;-83
2021/12/16 10:28:23;;;;;;;80.85;22.30;;;9.60;99.90;;;;;;5078503;28;20022;-82
2021/12/16 10:30:55;;;;;;;51.85;20.10;;;9.60;99.90;;;;;;5078461;28;20043;-83
2021/12/16 10:33:24;;;;;;;59.50;20.27;;;9.60;99.90;;;;;;5078197;28;20034;-83
2021/12/16 10:35:56;;;;;;;52.10;20.23;;;9.60;99.90;;;;;;5116372;28;20047;-82
2021/12/16 10:38:22;;;;;;;65.95;21.88;;;9.60;99.90;;;;;;5083359;28;20081;-82
2021/12/16 10:40:51;;;;;;;86.50;21.75;;;9.70;99.90;;;;;;5098587;28;20027;-82
2021/12/16 10:43:28;;;;;;;49.75;22.42;;;9.70;99.90;;;;;;5116432;28;20032;-82
2021/12/16 10:46:08;;;;;;;50.38;21.95;;;9.70;99.90;;;;;;5098487;28;20024;-82
2021/12/16 10:48:56;;;;;;;46.22;22.05;;;9.70;99.90;;;;;;5098260;28;20046;-82
2021/12/16 10:54:29;;;;;;;66.50;19.60;;;9.70;99.90;;;;;;5116469;28;20042;-82
2021/12/16 10:56:57;;;;;;;57.72;21.00;;;9.70;99.90;;;;;;5097359;28;20019;-83
2021/12/16 10:59:25;;;;;;;86.50;22.67;;;9.60;99.90;;;;;;5097687;28;20019;-84
2021/12/16 11:01:54;;;;;;;63.13;19.33;;;9.60;99.90;;;;;;5097646;28;20467;-83
2021/12/16 11:04:31;;;;;;;60.05;20.83;;;9.60;99.90;;;;;;5116399;28;20024;-83
2021/12/16 11:07:18;;;;;;;71.15;21.58;;;9.50;99.90;;;;;;5098026;28;20028;-83
2021/12/16 11:09:46;;;;;;;57.58;20.83;;;9.50;99.90;;;;;;5116139;28;20041;-83
2021/12/16 11:12:19;;;;;;;61.92;19.48;;;9.40;99.90;;;;;;5099017;28;20051;-83
2021/12/16 11:14:52;;;;;;;56.13;20.83;;;9.40;99.90;;;;;;5115546;28;20030;-82
2021/12/16 11:17:20;;;;;;;47.88;20.77;;;9.40;99.90;;;;;;5121409;28;20023;-83
2021/12/16 11:19:56;;;;;;;51.33;21.67;;;9.40;99.90;;;;;;5122199;28;20074;-83
2021/12/16 11:22:32;;;;;;;50.53;20.27;;;9.30;99.90;;;;;;5139000;28;20087;-83
2021/12/16 11:25:10;;;;;;;53.05;20.30;;;9.40;99.90;;;;;;5118091;28;20024;-83
2021/12/16 11:27:36;;;;;;;52.53;19.92;;;9.50;99.90;;;;;;5138604;28;20039;-84
2021/12/16 11:30:43;;;;;;;53.90;20.73;;;9.50;99.90;;;;;;5113230;28;20027;-84
2021/12/16 11:33:17;;;;;;;53.80;20.52;;;9.50;99.90;;;;;;5098200;28;20035;-83
2021/12/16 11:35:45;;;;;;;62.10;19.75;;;9.50;99.90;;;;;;5097481;28;20035;-83
2021/12/16 11:38:20;;;;;;;58.78;21.27;;;9.50;99.90;;;;;;5097662;28;20028;-83
2021/12/16 11:40:53;;;;;;;51.88;20.50;;;9.50;99.90;;;;;;5115800;28;20032;-84
2021/12/16 11:43:35;;;;;;;76.45;21.75;;;9.50;99.90;;;;;;5097487;28;20038;-84
2021/12/16 11:46:01;;;;;;;49.30;20.67;;;9.60;99.90;;;;;;5115822;28;20020;-84
2021/12/16 11:48:32;;;;;;;62.67;20.67;;;9.50;99.90;;;;;;5079962;28;20050;-87
2021/12/16 11:51:07;;;;;;;49.10;21.75;;;9.60;99.90;;;;;;5113083;28;20032;-84
2021/12/16 11:53:48;;;;;;;70.88;22.42;;;9.60;99.90;;;;;;5095157;28;20046;-84
2021/12/16 11:56:16;;;;;;;61.10;20.75;;;9.60;99.90;;;;;;5085812;28;20027;-84
2021/12/16 11:58:46;;;;;;;57.65;22.00;;;9.60;99.90;;;;;;5090670;28;20106;-84
2021/12/16 12:07:39;;;;;;;56.85;22.60;;;9.70;99.90;;;;;;5109825;28;20038;-84
2021/12/16 12:10:05;;;;;;;45.10;21.52;;;9.70;99.90;;;;;;5086437;28;20024;-84
2021/12/16 12:12:46;;;;;;;53.28;23.50;;;9.70;99.90;;;;;;5110192;28;20028;-85
2021/12/16 12:15:49;;;;;;;54.88;22.13;;;9.70;99.90;;;;;;5116186;27;20031;-85
2021/12/16 12:18:52;;;;;;;56.70;21.80;;;9.80;99.90;;;;;;5079032;28;20028;-85
2021/12/16 12:21:24;;;;;;;63.30;21.88;;;9.80;99.90;;;;;;5070390;28;20032;-85
2021/12/16 12:23:53;;;;;;;60.38;22.23;;;9.80;99.90;;;;;;5093614;28;20032;-85
2021/12/16 12:26:22;;;;;;;57.40;23.90;;;9.80;99.90;;;;;;5093743;28;20141;-84
2021/12/16 12:28:51;;;;;;;121.50;25.30;;;9.80;99.90;;;;;;5092690;28;20391;-85
2021/12/16 12:31:19;;;;;;;79.38;24.60;;;9.80;99.90;;;;;;5109860;27;20047;-85
2021/12/16 12:33:47;;;;;;;82.65;22.42;;;9.90;99.90;;;;;;5075495;28;20525;-85
2021/12/16 12:36:15;;;;;;;64.63;24.83;;;9.90;99.90;;;;;;5075589;28;20049;-85
2021/12/16 12:38:41;;;;;;;49.17;23.23;;;9.90;99.90;;;;;;5096660;28;20073;-85
2021/12/16 12:41:08;;;;;;;57.50;22.33;;;9.90;99.90;;;;;;5094477;28;20050;-85
2021/12/16 12:43:34;;;;;;;47.95;21.65;;;9.90;99.90;;;;;;5095613;28;20422;-86
2021/12/16 12:46:03;;;;;;;56.22;20.20;;;9.90;99.90;;;;;;5095966;28;20028;-85
2021/12/16 12:48:31;;;;;;;53.72;23.05;;;9.90;99.90;;;;;;5095627;28;20051;-86
2021/12/16 12:50:58;;;;;;;50.15;23.25;;;9.90;99.90;;;;;;5096128;28;20463;-85
2021/12/16 12:53:34;;;;;;;51.38;22.88;;;9.90;99.90;;;;;;5079180;28;20480;-85
2021/12/16 12:56:28;;;;;;;58.88;21.65;;;9.80;99.90;;;;;;5096365;28;20023;-85
2021/12/16 12:59:02;;;;;;;40.63;22.35;;;9.80;99.90;;;;;;5095916;28;20147;-85
2021/12/16 13:01:41;;;;;;;72.97;21.80;;;9.80;99.90;;;;;;5095703;28;20058;-87
2021/12/16 13:04:27;;;;;;;72.88;25.58;;;9.80;99.90;;;;;;5096020;28;20032;-84
2021/12/16 13:07:05;;;;;;;76.43;22.65;;;9.80;99.90;;;;;;5095734;28;20024;-88
2021/12/16 13:09:54;;;;;;;70.03;24.48;;;9.70;99.90;;;;;;5113749;28;20028;-85
2021/12/16 13:13:00;;;;;;;56.95;24.27;;;9.70;99.90;;;;;;5102834;28;20463;-85
2021/12/16 13:15:49;;;;;;;56.78;24.00;;;9.70;99.90;;;;;;5085467;28;20032;-85
2021/12/16 13:27:13;;;;;;;58.35;25.83;;;9.80;99.90;;;;;;5113818;28;20124;-86
2021/12/16 13:29:53;;;;;;;68.22;25.27;;;9.80;99.90;;;;;;5095544;28;20495;-86
2021/12/16 13:32:31;;;;;;;78.70;26.17;;;9.80;99.90;;;;;;5097982;28;20024;-84
2021/12/16 13:37:51;;;;;;;71.38;21.23;;;9.80;99.90;;;;;;5111324;28;20042;-87
2021/12/16 13:40:32;;;;;;;72.80;22.10;;;9.80;99.90;;;;;;5113729;28;20110;-84
2021/12/16 13:43:00;;;;;;;77.85;23.63;;;9.80;99.90;;;;;;5094939;28;20039;-84
2021/12/16 13:45:43;;;;;;;100.80;22.85;;;9.80;99.90;;;;;;5094726;28;20452;-84
2021/12/16 14:07:00;;;;;;;62.20;22.38;;;9.70;99.90;;;;;;5124922;28;20040;-84
2021/12/16 14:09:32;;;;;;;67.75;23.95;;;9.60;99.90;;;;;;5106492;28;20016;-84
2021/12/16 14:23:13;;;;;;;61.97;25.20;;;9.70;99.90;;;;;;5105987;28;20085;-84
2021/12/16 14:48:07;;;;;;;76.47;25.00;;;9.70;99.90;;;;;;5107575;28;20075;-84
2021/12/16 14:50:37;;;;;;;62.20;27.08;;;9.70;99.90;;;;;;5116611;28;20450;-84
2021/12/16 14:53:17;;;;;;;65.87;27.20;;;9.70;99.90;;;;;;5116772;28;20054;-83
2021/12/16 14:55:43;;;;;;;48.58;24.60;;;9.70;99.90;;;;;;5116508;28;20269;-84
2021/12/16 14:58:09;;;;;;;57.70;28.27;;;9.80;99.90;;;;;;5087786;28;20032;-84
2021/12/16 15:00:52;;;;;;;73.00;26.15;;;9.70;99.90;;;;;;5088614;28;20030;-85
2021/12/16 15:06:40;;;;;;;85.07;27.83;;;9.80;99.90;;;;;;5116485;28;20042;-84
2021/12/16 15:09:28;;;;;;;63.28;24.73;;;9.80;99.90;;;;;;5088157;28;20038;-84
2021/12/16 15:12:27;;;;;;;69.53;25.67;;;9.70;99.90;;;;;;5117244;27;20059;-86
2021/12/16 15:44:19;;;;;;;58.08;25.95;;;9.70;99.90;;;;;;5115512;28;20059;-84
2021/12/16 15:53:58;;;;;;;63.30;27.50;;;9.60;99.90;;;;;;5074217;28;20028;-85
2021/12/16 15:56:34;;;;;;;68.57;30.08;;;9.60;99.90;;;;;;5056700;28;20051;-85
2021/12/16 15:59:06;;;;;;;57.47;25.75;;;9.70;99.90;;;;;;5056312;28;20024;-85
2021/12/16 16:02:21;;;;;;;64.63;28.67;;;9.60;99.90;;;;;;5074435;28;20024;-85
2021/12/16 16:08:14;;;;;;;49.83;25.70;;;9.60;99.90;;;;;;5074301;28;20063;-85
2021/12/16 16:14:06;;;;;;;59.65;25.45;;;9.70;99.90;;;;;;5074200;28;20027;-85
2021/12/16 16:16:43;;;;;;;66.95;27.42;;;9.70;99.90;;;;;;5057794;28;20025;-85
2021/12/16 16:19:37;;;;;;;82.43;28.17;;;9.70;99.90;;;;;;5075653;28;20060;-90
2021/12/16 16:22:04;;;;;;;75.47;27.58;;;9.70;99.90;;;;;;5059099;28;20017;-85
2021/12/16 16:24:42;;;;;;;64.60;27.08;;;9.70;99.90;;;;;;5024487;28;20036;-85
2021/12/16 16:27:13;;;;;;;63.80;27.88;;;9.70;99.90;;;;;;5056147;28;20024;-85
2021/12/16 16:29:42;;;;;;;72.38;29.65;;;9.70;99.90;;;;;;5074384;28;20044;-85
2021/12/16 16:35:33;;;;;;;58.63;26.33;;;9.70;99.90;;;;;;5073886;28;20078;-85
2021/12/16 16:38:09;;;;;;;51.92;27.35;;;9.70;99.90;;;;;;5039203;28;20043;-85
2021/12/16 16:40:40;;;;;;;53.85;27.05;;;9.70;99.90;;;;;;5055358;28;20029;-85
2021/12/16 16:43:24;;;;;;;58.05;26.08;;;9.80;99.90;;;;;;5073542;28;20448;-85
2021/12/16 16:45:55;;;;;;;75.45;26.17;;;9.70;99.90;;;;;;5039675;28;20045;-83
2021/12/16 16:51:18;;;;;;;76.53;26.42;;;9.80;99.90;;;;;;5093621;28;20046;-85
2021/12/16 16:53:52;;;;;;;53.08;26.02;;;9.80;99.90;;;;;;5075732;28;20028;-86
2021/12/16 16:56:38;;;;;;;60.28;23.73;;;9.80;99.90;;;;;;5075763;28;20086;-85
2021/12/16 16:59:06;;;;;;;50.88;23.30;;;9.80;99.90;;;;;;5074889;28;20392;-84
2021/12/16 17:01:33;;;;;;;51.83;25.25;;;9.80;99.90;;;;;;5075517;28;20031;-84
2021/12/16 17:04:09;;;;;;;77.35;26.90;;;9.80;99.90;;;;;;5075403;28;20024;-84
2021/12/16 17:06:35;;;;;;;65.22;25.98;;;9.80;99.90;;;;;;5075378;28;20028;-84
2021/12/16 17:09:03;;;;;;;48.83;25.02;;;9.80;99.90;;;;;;5075611;28;20419;-85
2021/12/16 17:11:29;;;;;;;46.47;25.25;;;9.80;99.90;;;;;;5075699;28;20391;-85
2021/12/16 17:14:17;;;;;;;56.90;26.90;;;9.80;99.90;;;;;;5075556;28;20177;-85
2021/12/16 17:19:48;;;;;;;50.53;25.40;;;9.80;99.90;;;;;;5092179;28;20043;-84
2021/12/16 17:22:24;;;;;;;66.97;27.25;;;9.80;99.90;;;;;;5075197;28;20020;-85
2021/12/16 17:24:50;;;;;;;62.85;27.15;;;9.80;99.90;;;;;;5075784;28;20138;-84
2021/12/16 17:27:19;;;;;;;53.28;27.05;;;9.80;99.90;;;;;;5075440;28;20020;-84
2021/12/16 17:29:59;;;;;;;80.82;28.42;;;9.80;99.90;;;;;;5079634;28;20439;-84
2021/12/16 17:32:28;;;;;;;64.03;27.63;;;9.80;99.90;;;;;;5079477;28;20024;-85
2021/12/16 17:35:03;;;;;;;63.88;27.80;;;9.80;99.90;;;;;;5079776;28;20111;-85
2021/12/16 17:37:42;;;;;;;55.58;26.48;;;9.80;99.90;;;;;;5079764;28;20024;-88
2021/12/16 17:40:24;;;;;;;60.03;27.73;;;9.80;99.90;;;;;;5076282;28;20020;-86
2021/12/16 17:42:55;;;;;;;48.83;25.02;;;9.80;99.90;;;;;;5094212;28;20039;-85
2021/12/16 17:45:42;;;;;;;53.58;25.80;;;9.80;99.90;;;;;;5079261;28;20028;-85
2021/12/16 17:48:11;;;;;;;63.63;28.13;;;9.90;99.90;;;;;;5078936;28;20044;-85
2021/12/16 17:50:42;;;;;;;65.15;28.50;;;9.90;99.90;;;;;;5079066;28;20040;-85
2021/12/16 17:53:08;;;;;;;;;;;9.90;99.90;;;;;;5079653;28;20020;-85
2021/12/16 17:55:42;;;;;;;60.78;27.08;;;9.80;99.90;;;;;;5078892;28;19908;-84
2021/12/16 17:58:17;;;;;;;63.47;27.83;;;9.90;99.90;;;;;;5097249;28;20188;-86
2021/12/16 18:00:51;;;;;;;69.18;28.02;;;9.90;99.90;;;;;;5080090;28;20051;-86
2021/12/16 18:03:33;;;;;;;51.63;25.05;;;9.80;99.90;;;;;;5083100;28;20066;-87
2021/12/16 18:06:04;;;;;;;60.40;27.98;;;9.90;99.90;;;;;;5105870;28;20024;-85
2021/12/16 18:08:44;;;;;;;66.25;28.17;;;9.90;99.90;;;;;;5092999;28;20031;-85
2021/12/16 18:11:15;;;;;;;72.68;30.42;;;9.90;99.90;;;;;;5086782;28;20424;-86
2021/12/16 18:13:50;;;;;;;58.85;29.30;;;9.90;99.90;;;;;;5097245;28;20027;-85
2021/12/16 18:16:28;;;;;;;61.95;28.90;;;9.90;99.90;;;;;;5078904;28;20027;-86
2021/12/16 18:18:56;;;;;;;69.30;29.52;;;9.90;99.90;;;;;;5077957;28;20523;-85
2021/12/16 18:21:22;;;;;;;62.38;29.70;;;9.90;99.90;;;;;;5061982;28;20846;-85
2021/12/16 18:23:53;;;;;;;62.90;29.33;;;9.90;99.90;;;;;;5066599;28;20032;-86
2021/12/16 18:26:19;;;;;;;61.13;29.52;;;9.90;99.90;;;;;;5101922;28;20115;-87
2021/12/16 18:28:50;;;;;;;68.80;27.50;;;9.90;99.90;;;;;;5080054;28;20031;-84
2021/12/16 18:31:30;;;;;;;59.78;27.85;;;9.90;99.90;;;;;;5095885;28;20027;-89
2021/12/16 18:34:17;;;;;;;56.55;28.23;;;9.90;99.90;;;;;;5078015;28;20028;-85
2021/12/16 18:36:44;;;;;;;58.05;27.40;;;9.90;99.90;;;;;;5077678;28;20024;-87